Date,TemperatureHighF,TemperatureAvgF,TemperatureLowF,DewpointHighF,DewpointAvgF,DewpointLowF,HumidityHigh,HumidityAvg,HumidityLow,PressureMaxIn,PressureMinIn,WindSpeedMaxMPH,WindSpeedAvgMPH,GustSpeedMaxMPH,PrecipitationSumIn
2013-1-1,47.3,47.1,46.9,46.4,46.4,46.4,94,94,93,29.50,29.47,6,4,16,0.08
2013-1-2,50.7,44.0,40.3,44.6,40.2,37.4,98,85,68,30.21,29.83,11,2,11,0.04
2013-1-3,52.2,49.5,44.8,50.0,48.4,44.6,98,95,89,30.51,30.18,10,2,10,0.00
2013-1-4,50.0,49.5,48.9,48.2,48.2,48.2,98,96,95,30.51,30.45,9,2,9,0.00
2013-1-8,47.1,43.1,41.7,42.8,42.0,41.0,97,93,86,30.24,30.15,6,2,10,0.00
2013-1-9,46.2,43.1,39.4,46.4,42.7,37.4,98,96,84,30.18,29.98,9,2,9,0.16
2013-1-10,48.7,41.6,39.0,39.2,36.7,33.8,94,82,67,30.01,29.83,4,1,6,0.05
2013-1-11,43.7,30.3,27.9,37.4,25.9,23.0,94,86,54,30.07,29.86,7,1,7,0.00
2013-1-12,37.2,33.1,27.7,24.8,22.5,17.6,84,64,51,30.03,29.95,6,1,8,0.00
2013-1-13,36.3,25.8,24.1,23.0,19.3,17.6,82,78,52,30.07,29.98,6,2,8,0.00
2013-1-14,30.7,24.8,21.4,23.0,20.0,17.6,90,85,64,30.03,29.65,5,0,8,0.00
2013-1-15,30.2,26.9,25.3,24.8,23.0,15.8,96,91,69,29.80,29.56,8,3,11,0.00
2013-1-16,37.0,22.0,13.5,32.0,15.3,8.6,91,79,53,29.98,29.77,4,0,6,0.00
2013-1-17,23.7,19.1,13.8,32.0,15.3,8.6,91,89,80,30.07,29.95,4,1,5,0.00
2013-1-18,32.9,26.0,22.8,26.6,21.9,19.4,92,89,71,30.01,29.56,5,1,10,0.00
2013-1-19,28.6,26.0,21.9,21.2,18.1,10.4,77,74,54,29.86,29.44,10,4,11,0.00
2013-1-20,27.1,22.1,21.6,24.8,13.9,12.2,93,74,65,29.50,29.30,11,4,11,0.00
2013-1-21,32.2,27.1,25.9,30.2,24.2,23.0,96,92,89,29.56,29.33,6,2,6,0.00
2013-1-22,33.6,25.7,19.6,24.8,21.3,15.8,89,87,66,29.74,29.56,4,1,6,0.00
2013-1-23,29.5,20.5,16.7,21.2,16.0,12.2,90,86,70,29.86,29.71,5,1,6,0.00
2013-1-24,36.0,24.4,21.2,21.2,18.0,14.0,89,80,53,30.12,29.80,5,1,6,0.00
2013-1-25,33.6,18.3,15.3,23.0,12.8,10.4,90,83,60,30.12,29.83,6,0,8,0.00
2013-1-26,33.1,27.1,24.4,33.8,20.5,17.6,96,78,73,29.80,29.71,7,2,9,0.00
2013-1-27,42.1,35.8,33.1,41.0,34.3,32.0,97,92,82,29.77,29.39,12,2,13,0.16
2013-1-28,45.1,37.3,35.4,42.8,36.0,33.8,97,93,69,29.83,29.56,12,2,15,0.13
2013-1-29,55.0,49.3,44.1,51.8,47.4,42.8,98,91,85,29.71,29.56,17,5,22,0.33
2013-1-30,55.0,52.2,46.0,51.8,50.2,35.6,98,91,59,29.86,29.50,15,5,18,0.62
2013-1-31,49.5,44.7,42.3,42.8,37.8,35.6,93,75,63,29.95,29.68,14,4,22,0.13
2013-2-1,45.3,39.3,35.8,39.2,37.6,35.6,97,92,73,29.80,29.36,6,1,14,0.29
2013-2-2,45.3,40.0,36.9,35.6,30.5,26.6,90,68,51,29.98,29.39,15,3,15,0.29
2013-2-3,45.1,41.9,38.5,42.8,36.9,26.6,98,83,58,30.01,29.77,10,4,17,0.04
2013-2-4,51.3,45.9,44.2,44.6,42.6,30.2,97,88,50,29.83,29.68,17,4,17,0.08
2013-2-5,44.6,39.7,33.1,37.4,32.3,23.0,96,74,53,29.71,29.30,20,4,20,0.17
2013-2-6,44.4,33.3,32.2,33.8,32.1,28.4,97,93,54,29.74,29.21,9,2,9,0.33
2013-2-7,43.2,36.8,32.9,37.4,32.7,30.2,93,83,64,29.89,29.74,8,2,8,0.13
2013-2-8,43.7,33.9,30.9,33.8,31.8,23.0,96,90,49,30.03,29.83,6,1,6,0.08
2013-2-9,38.5,33.6,31.5,32.0,28.2,21.2,94,81,52,30.07,29.92,7,1,7,0.00
2013-2-10,36.9,32.1,28.6,28.4,23.9,15.8,95,75,54,29.92,29.53,12,2,12,0.04
2013-2-11,32.7,28.2,27.0,19.4,14.6,12.2,72,59,53,29.74,29.47,12,4,12,0.00
2013-2-12,33.1,27.7,25.0,23.0,18.6,14.0,77,71,53,30.09,29.71,6,2,6,0.00
2013-2-13,40.5,30.0,28.0,24.8,22.6,17.6,82,77,50,30.24,30.07,5,0,6,0.04
2013-2-14,34.5,29.9,28.8,33.8,15.9,14.0,98,59,54,30.18,29.80,10,3,11,0.04
2013-2-15,50.5,36.1,34.5,44.6,36.0,33.8,98,97,68,30.12,29.83,6,0,10,0.13
2013-2-16,47.3,41.9,38.7,42.8,38.2,37.4,96,87,70,30.21,30.12,3,0,4,0.00
2013-2-17,49.1,38.2,32.9,37.4,36.6,30.2,98,92,52,30.24,30.12,6,1,7,0.04
2013-2-18,48.6,33.2,30.2,37.4,29.3,26.6,96,88,49,30.21,30.07,3,0,6,0.00
2013-2-19,43.7,34.7,31.5,37.4,32.2,26.6,94,90,71,30.12,29.95,4,0,7,0.00
2013-2-20,40.6,31.7,28.6,30.2,23.5,15.8,83,73,49,30.30,30.09,8,2,11,0.00
2013-2-21,36.9,27.7,26.4,23.0,19.2,14.0,80,74,47,30.27,30.12,8,1,8,0.00
2013-2-22,34.2,26.3,24.4,21.2,18.4,10.4,81,74,51,30.15,30.01,10,1,12,0.00
2013-2-23,33.3,25.5,23.5,21.2,13.7,10.4,68,63,52,30.03,30.01,7,2,11,0.00
2013-2-24,33.8,31.2,30.2,32.0,26.4,21.2,96,85,69,30.09,30.01,10,3,10,0.08
2013-2-25,36.9,34.0,32.9,33.8,32.4,32.0,96,93,86,30.27,30.01,7,2,8,0.04
2013-2-26,41.0,35.6,34.5,35.6,33.9,33.8,96,93,78,30.45,30.27,6,2,6,0.00
2013-2-27,35.8,33.2,32.5,33.8,31.6,28.4,95,91,75,30.48,30.42,7,2,8,0.00
2013-2-28,42.8,33.9,33.3,33.8,29.8,28.4,88,83,58,30.42,30.30,6,1,6,0.00
2013-3-1,41.5,38.0,36.3,37.4,33.0,26.6,95,82,57,30.30,30.24,5,1,10,0.00
2013-3-2,42.1,36.4,35.6,28.4,27.5,26.6,71,69,55,30.30,30.18,4,1,6,0.00
2013-3-3,45.1,37.4,36.0,41.0,31.4,26.6,91,77,65,30.24,30.12,4,1,6,0.00
2013-3-4,52.5,34.8,31.1,33.8,27.6,24.8,85,76,46,30.15,29.83,6,2,10,0.00
2013-3-5,64.0,38.5,34.0,35.6,27.6,24.8,74,65,34,29.83,29.65,5,0,8,0.00
2013-3-6,59.5,43.0,39.2,41.0,31.2,28.4,68,62,46,29.65,29.53,3,0,5,0.00
2013-3-7,53.1,48.2,44.2,42.8,35.9,30.2,90,62,51,29.53,29.42,6,2,6,0.05
2013-3-8,58.1,49.5,45.1,48.2,44.9,41.0,93,83,66,29.47,29.42,8,2,8,0.00
2013-3-9,45.5,42.6,39.2,44.6,41.8,37.4,98,96,93,29.47,29.39,13,2,13,0.87
2013-3-10,31.3,30.7,30.2,19.4,17.8,15.8,65,62,59,29.71,29.65,8,3,8,0.24
2013-3-11,31.1,28.6,27.3,19.4,17.2,14.0,72,65,54,29.77,29.71,8,3,12,0.00
2013-3-12,36.0,26.6,24.1,15.8,14.0,8.6,69,61,42,29.77,29.65,12,4,12,0.00
2013-3-13,45.7,25.1,21.2,30.2,15.0,10.4,76,68,50,29.80,29.62,4,0,8,0.00
2013-3-14,42.4,31.6,26.4,30.2,23.5,14.0,89,75,42,29.95,29.74,7,1,8,0.00
2013-3-15,37.9,30.8,26.6,33.8,21.7,17.6,93,71,63,29.95,29.77,8,1,10,0.13
2013-3-16,45.9,38.2,37.0,32.0,29.5,21.2,76,69,42,29.80,29.47,10,2,12,0.04
2013-3-17,53.6,40.5,38.1,39.2,33.1,24.8,93,74,50,29.50,29.24,8,2,10,0.00
2013-3-18,50.5,39.7,37.2,39.2,36.6,32.0,95,88,54,29.33,29.18,10,2,10,0.08
2013-3-19,44.6,35.1,32.4,37.4,32.4,30.2,93,88,73,29.53,29.30,4,0,8,0.04
2013-3-20,38.5,35.6,33.8,32.0,28.0,26.6,82,73,60,29.71,29.50,7,3,7,0.04
2013-3-21,42.8,37.3,30.7,28.4,24.2,23.0,79,59,51,30.09,29.71,4,1,6,0.00
2013-3-22,41.2,29.2,27.0,26.6,23.3,19.4,90,83,50,30.09,29.89,10,3,14,0.00
2013-3-23,36.0,31.6,28.6,19.4,16.4,8.6,60,56,44,29.95,29.89,18,7,18,0.00
2013-3-24,36.7,27.4,25.7,8.6,5.7,-14.8,45,41,11,29.98,29.89,17,5,17,0.00
2013-3-25,43.0,29.6,27.5,15.8,8.7,6.8,45,42,28,30.01,29.89,11,4,14,0.00
2013-3-26,45.3,29.0,25.7,15.8,10.4,8.6,51,47,28,29.95,29.83,10,3,13,0.00
2013-3-27,46.8,28.1,24.6,21.2,12.2,10.4,62,53,30,29.92,29.77,8,2,12,0.00
2013-3-28,42.6,30.3,26.8,21.2,13.2,10.4,69,50,42,29.83,29.77,6,2,8,0.00
2013-3-29,41.7,29.7,26.4,26.6,22.2,21.2,84,76,48,29.83,29.74,4,1,6,0.00
2013-3-30,43.0,30.0,27.3,30.2,24.6,21.2,89,84,46,29.89,29.71,5,0,8,0.00
2013-3-31,42.1,32.2,28.6,30.2,24.1,19.4,84,75,44,29.95,29.86,6,1,8,0.00
2013-4-1,50.2,33.1,28.9,24.8,21.7,17.6,77,65,36,29.92,29.80,8,1,13,0.00
2013-4-2,51.4,33.1,28.0,23.0,17.9,-11.2,62,55,8,29.98,29.83,10,1,15,0.00
2013-4-3,48.7,34.0,31.5,23.0,18.3,15.8,54,52,37,30.01,29.92,8,2,11,0.00
2013-4-4,40.6,34.7,33.3,23.0,19.8,17.6,59,52,49,29.95,29.83,10,2,11,0.00
2013-4-5,47.3,37.0,34.9,26.6,24.0,23.0,66,59,41,30.01,29.80,7,2,12,0.00
2013-4-6,54.1,37.5,33.6,30.2,28.4,19.4,76,69,36,30.21,29.95,6,1,10,0.00
2013-4-7,56.3,33.9,30.7,33.8,26.6,19.4,93,77,36,30.21,29.92,4,0,6,0.00
2013-4-8,53.6,36.7,33.8,28.4,22.2,21.2,59,55,35,29.95,29.59,8,1,11,0.00
2013-4-9,51.6,40.2,36.1,42.8,32.5,21.2,89,74,41,29.59,29.44,5,2,8,0.00
2013-4-10,48.9,42.8,37.8,44.6,40.3,32.0,95,90,66,29.71,29.47,8,0,10,0.00
2013-4-11,48.4,41.5,39.0,48.2,40.7,33.8,98,95,83,29.65,29.36,7,2,15,0.21
2013-4-12,57.6,42.3,39.6,51.8,41.3,39.2,98,95,61,29.65,29.44,11,1,17,0.29
2013-4-13,61.3,43.0,40.8,48.2,41.8,37.4,98,94,43,30.03,29.62,10,2,13,0.08
2013-4-14,73.9,56.0,50.2,53.6,51.2,44.6,96,85,41,30.07,29.95,8,2,10,0.05
2013-4-15,66.2,57.6,48.7,50.0,46.3,41.0,84,65,48,30.09,29.95,8,1,13,0.04
2013-4-16,61.9,49.9,46.6,50.0,45.6,41.0,92,83,48,30.09,29.95,11,1,14,0.00
2013-4-17,70.3,52.3,48.0,53.6,47.6,44.6,96,84,41,30.12,29.80,6,1,10,0.00
2013-4-18,63.5,55.8,48.6,48.2,43.7,35.6,74,63,40,30.01,29.77,13,4,24,0.00
2013-4-19,55.8,46.9,41.2,44.6,37.9,35.6,81,70,51,30.39,30.01,12,2,12,0.00
2013-4-20,58.6,49.4,36.3,37.4,31.4,28.4,89,51,37,30.45,30.30,8,2,8,0.00
2013-4-21,61.9,39.6,35.4,37.4,31.2,26.6,82,71,37,30.33,30.01,6,0,8,0.00
2013-4-22,64.2,41.6,36.7,42.8,33.4,26.6,86,73,41,30.03,29.95,8,0,10,0.00
2013-4-23,60.4,49.4,47.8,50.0,44.7,37.4,97,83,54,30.21,29.95,13,2,13,0.04
2013-4-24,69.1,53.1,46.9,48.2,45.9,44.6,92,78,45,30.24,30.18,12,1,12,0.00
2013-4-25,76.8,52.4,49.6,51.8,46.8,42.8,88,81,40,30.24,29.95,5,0,9,0.00
2013-4-26,60.6,48.3,41.0,48.2,44.9,37.4,94,87,52,29.98,29.83,8,2,8,0.33
2013-4-27,55.9,40.9,37.9,41.0,36.1,30.2,93,83,44,29.98,29.80,9,1,12,0.00
2013-4-28,60.8,41.9,36.9,37.4,33.4,28.4,84,72,36,30.07,29.89,5,0,8,0.00
2013-4-29,58.8,44.3,42.3,44.6,32.4,26.6,90,63,38,30.09,29.83,10,2,12,0.00
2013-4-30,60.8,45.9,27.0,41.0,38.0,17.6,83,73,40,30.24,30.07,5,0,9,0.00
2013-5-1,68.5,43.7,38.7,41.0,33.9,32.0,79,69,34,30.27,30.07,8,1,8,0.00
2013-5-2,63.5,47.9,45.9,42.8,32.1,28.4,65,53,45,30.15,30.07,6,2,12,0.00
2013-5-3,71.1,48.0,43.3,46.4,38.5,35.6,77,69,40,30.09,30.01,5,0,8,0.00
2013-5-4,66.4,56.1,46.9,46.4,41.1,37.4,81,58,39,30.09,29.95,15,3,15,0.00
2013-5-5,73.2,57.7,45.9,48.2,42.9,35.6,93,60,35,30.18,30.07,7,1,7,0.00
2013-5-6,80.1,61.5,45.1,50.0,44.0,39.2,85,56,31,30.18,30.03,7,1,7,0.00
2013-5-7,82.8,63.4,51.6,55.4,49.4,42.8,82,62,31,30.03,29.86,9,1,9,0.00
2013-5-8,72.1,59.8,56.5,57.2,55.2,51.8,95,85,48,29.89,29.77,6,1,6,0.00
2013-5-11,59.9,55.2,47.1,48.2,42.9,37.4,91,63,45,29.86,29.77,14,3,14,0.21
2013-5-12,56.3,46.9,43.2,44.6,41.8,35.6,92,82,50,29.98,29.77,9,2,12,0.08
2013-5-13,57.9,49.7,45.3,51.8,48.4,37.4,98,93,47,29.92,29.77,11,3,14,0.21
2013-5-14,56.8,46.5,43.3,48.2,43.0,37.4,91,85,49,29.80,29.56,9,2,10,0.37
2013-5-15,65.8,50.4,46.6,48.2,46.8,35.6,94,87,39,29.59,29.36,10,2,13,0.04
2013-5-16,51.8,45.0,42.4,48.2,40.6,37.4,97,83,68,29.59,29.44,5,0,8,0.67
2013-5-17,50.2,46.6,46.2,48.2,46.6,46.4,98,96,85,29.68,29.47,6,1,6,0.62
2013-5-18,49.8,46.7,46.0,46.4,45.8,44.6,96,95,83,29.74,29.65,6,2,7,0.00
2013-5-19,68.0,54.5,41.4,50.0,44.7,41.0,97,71,46,29.83,29.77,7,2,7,0.00
2013-5-20,54.0,50.3,49.5,51.8,48.7,46.4,97,94,81,29.80,29.71,4,1,4,0.54
2013-5-21,51.1,49.5,47.7,50.0,49.3,46.4,98,97,92,29.86,29.74,7,1,10,0.79
2013-5-22,56.7,47.3,46.0,46.4,41.6,37.4,93,80,54,29.98,29.86,10,3,14,0.00
2013-5-23,55.2,43.4,40.3,41.0,37.4,32.0,88,79,45,29.92,29.71,6,1,11,0.08
2013-5-24,61.5,43.3,40.5,44.6,37.9,35.6,86,79,47,29.95,29.71,9,1,15,0.16
2013-5-25,49.5,47.9,45.5,44.6,39.5,37.4,94,72,61,29.98,29.92,6,3,6,0.16
2013-5-26,58.3,46.6,45.3,44.6,44.1,37.4,96,91,48,29.95,29.83,10,2,12,0.24
2013-5-27,72.0,48.7,44.4,46.4,42.4,28.4,93,81,22,29.89,29.71,6,1,10,0.00
2013-5-28,77.2,51.9,47.3,50.0,38.8,30.2,78,61,33,29.74,29.47,8,1,10,0.00
2013-5-29,55.4,51.4,49.1,53.6,47.7,46.4,94,86,74,29.59,29.47,8,2,11,0.05
2013-5-30,69.1,52.8,51.3,53.6,50.3,42.8,96,91,47,29.86,29.59,4,1,6,0.00
2013-5-31,74.7,52.9,50.4,55.4,50.5,46.4,97,92,43,29.98,29.83,8,2,12,0.00
2013-6-1,59.7,49.2,48.0,48.2,47.7,42.8,96,92,57,30.18,29.95,11,3,12,0.00
2013-6-2,70.5,49.4,43.9,46.4,43.4,39.2,94,81,36,30.33,30.18,7,1,10,0.00
2013-6-3,66.0,48.7,45.9,46.4,43.0,37.4,87,80,43,30.42,30.30,7,1,10,0.00
2013-6-4,75.9,51.4,46.8,50.0,43.8,41.0,83,74,37,30.33,30.12,8,2,10,0.00
2013-6-5,82.2,53.6,49.3,51.8,46.5,42.8,88,77,31,30.15,30.03,6,1,8,0.00
2013-6-6,85.1,67.3,51.8,55.4,51.1,44.6,85,59,32,30.12,30.07,4,2,7,0.00
2013-6-7,85.8,74.7,56.5,55.4,51.7,46.4,83,47,29,30.15,30.07,5,2,8,0.00
2013-6-8,74.7,54.6,51.1,50.0,48.1,44.6,88,78,39,30.18,29.98,8,2,12,0.00
2013-6-9,69.4,56.7,50.9,48.2,44.9,41.0,77,64,44,30.01,29.86,7,2,7,0.00
2013-6-10,65.5,52.6,50.4,44.6,42.6,41.0,74,67,44,29.98,29.92,5,1,7,0.00
2013-6-11,79.3,53.5,44.6,51.8,45.9,42.8,92,77,36,30.01,29.95,6,0,6,0.00
2013-6-12,74.3,62.0,60.4,60.8,54.3,51.8,94,76,50,30.01,29.89,11,1,11,0.04
2013-6-13,67.1,61.8,55.8,62.6,58.5,46.4,95,89,52,29.98,29.83,11,2,14,0.17
2013-6-14,62.2,55.8,54.9,51.8,49.7,48.2,84,79,62,30.07,29.95,8,2,9,0.00
2013-6-15,69.1,60.3,51.8,53.6,45.0,41.0,86,58,37,29.92,29.74,20,3,20,0.08
2013-6-16,70.7,55.1,52.7,48.2,46.1,37.4,82,71,41,30.01,29.86,8,2,12,0.00
2013-6-17,82.0,56.4,51.4,55.4,46.1,42.8,76,68,38,30.01,29.86,6,1,7,0.00
2013-6-18,93.9,63.3,58.8,64.4,55.6,53.6,82,75,34,29.98,29.89,4,0,5,0.00
2013-6-19,82.8,68.8,64.2,62.6,59.3,57.2,80,72,45,29.95,29.83,5,0,7,0.00
2013-6-20,77.7,68.7,62.2,68.0,63.2,57.2,93,82,62,29.95,29.74,6,1,6,0.00
2013-6-21,67.5,61.2,59.0,66.2,58.0,55.4,95,89,82,29.92,29.71,10,2,10,0.20
2013-6-22,66.2,60.8,57.0,59.0,54.9,50.0,91,80,66,29.92,29.71,11,3,11,0.09
2013-6-24,54.0,52.7,52.5,48.2,48.2,48.2,85,84,80,30.21,30.18,3,0,3,0.00
2013-6-25,71.6,53.4,50.5,51.8,48.1,37.4,91,83,34,30.36,30.18,4,0,9,0.04
2013-6-26,69.8,50.4,47.5,51.8,44.9,42.8,92,81,43,30.36,30.27,6,0,10,0.29
2013-6-27,63.3,52.8,49.8,51.8,49.4,41.0,95,88,48,30.27,30.09,5,1,10,0.00
2013-6-28,64.8,55.1,53.6,57.2,52.1,48.2,97,88,62,30.09,29.95,6,1,8,0.20
2013-6-29,69.8,57.5,52.3,59.0,55.2,42.8,98,92,43,30.21,29.89,8,2,9,0.16
2013-6-30,77.0,56.9,49.6,57.2,48.6,44.6,83,74,44,30.24,30.01,6,1,11,0.00
2013-7-1,67.8,59.4,56.8,57.2,54.7,46.4,90,84,48,30.03,29.95,8,2,11,0.00
2013-7-2,78.8,56.9,53.2,57.2,52.2,46.4,94,84,37,29.98,29.74,4,0,6,0.09
2013-7-3,65.7,60.0,59.2,60.8,58.2,57.2,96,93,77,29.95,29.65,5,1,7,0.37
2013-7-4,75.4,61.0,59.5,60.8,58.3,53.6,94,90,52,30.21,29.95,6,1,9,0.00
2013-7-5,80.4,66.3,59.9,62.6,54.3,48.2,92,68,39,30.39,30.18,7,1,7,0.00
2013-7-6,86.4,60.5,55.6,60.8,54.3,50.0,89,80,37,30.42,30.30,6,0,8,0.00
2013-7-7,88.0,62.2,57.6,59.0,55.3,46.4,90,78,25,30.42,30.36,4,0,7,0.00
2013-7-8,85.1,62.1,58.3,59.0,55.1,50.0,89,78,37,30.45,30.36,6,1,8,0.00
2013-7-9,84.6,60.7,56.3,53.6,49.5,42.8,85,67,25,30.39,30.18,4,1,7,0.00
2013-7-10,77.0,60.3,58.1,59.0,54.6,44.6,90,81,41,30.24,30.18,5,1,10,0.00
2013-7-11,72.7,58.7,57.2,48.2,46.7,44.6,68,63,42,30.21,30.18,6,2,8,0.00
2013-7-12,70.3,54.5,50.7,57.2,47.7,44.6,85,76,51,30.21,30.18,5,0,9,0.00
2013-7-13,79.3,70.0,56.3,53.6,52.1,50.0,87,54,41,30.21,30.18,4,1,7,0.00
2013-7-14,81.9,58.4,54.1,59.0,54.3,53.6,94,86,41,30.24,30.15,4,0,6,0.00
2013-7-15,87.6,71.9,61.0,60.8,54.7,48.2,83,58,31,30.18,30.12,5,1,8,0.00
2013-7-16,87.1,62.6,57.9,60.8,56.1,46.4,93,81,32,30.21,30.18,4,0,6,0.00
2013-7-17,86.4,65.7,62.4,62.6,53.6,48.2,79,65,35,30.24,30.18,6,0,6,0.00
2013-7-18,90.1,66.2,62.2,66.2,60.5,53.6,93,83,31,30.27,30.18,4,0,8,0.00
2013-7-19,88.9,64.2,59.7,60.8,54.6,48.2,80,71,34,30.24,30.18,5,1,8,0.00
2013-7-20,74.5,64.5,62.2,59.0,57.4,53.6,83,77,50,30.24,30.09,5,1,6,0.00
2013-7-21,95.2,64.3,59.7,62.6,58.6,53.6,93,83,29,30.12,30.01,6,0,7,0.00
2013-7-22,99.7,81.8,65.1,64.4,59.7,55.4,82,51,27,30.07,29.95,6,1,6,0.00
2013-7-23,97.7,71.7,66.6,66.2,61.6,51.8,85,72,26,29.95,29.86,4,0,7,0.00
2013-7-24,84.6,69.1,64.6,64.4,58.8,50.0,78,70,38,29.98,29.86,8,0,9,0.00
2013-7-25,90.3,65.2,61.0,62.6,56.8,53.6,86,75,38,29.98,29.89,6,0,8,0.00
2013-7-26,85.1,68.8,65.8,71.6,62.0,59.0,91,79,51,29.95,29.83,3,0,6,0.20
2013-7-27,80.1,67.8,65.5,71.6,65.3,62.6,96,91,58,29.89,29.62,7,0,11,0.96
2013-7-28,80.4,65.9,64.0,66.2,61.3,53.6,97,85,44,29.89,29.59,8,1,12,0.21
2013-7-29,80.1,66.8,62.6,62.6,58.5,53.6,88,75,44,29.98,29.83,8,1,12,0.00
2013-7-30,72.7,63.3,61.0,62.6,57.1,53.6,97,80,57,29.98,29.83,8,2,12,0.17
2013-7-31,73.8,65.3,63.7,64.4,61.8,55.4,94,88,53,30.03,29.89,10,2,10,0.00
2013-8-1,95.9,68.7,63.7,66.2,62.5,57.2,91,81,33,30.01,29.83,5,0,6,0.00
2013-8-2,94.5,71.2,68.5,66.2,60.3,59.0,75,68,40,29.83,29.77,4,0,6,0.00
2013-8-17,79.3,71.6,63.5,60.8,56.8,53.6,89,60,46,29.95,29.83,5,1,8,0.00
2013-8-18,75.2,63.4,59.7,64.4,58.5,51.8,97,84,46,29.86,29.74,11,1,13,0.25
2013-8-19,74.7,59.8,56.7,60.8,55.2,46.4,93,84,42,30.27,29.83,6,0,10,0.25
2013-8-20,75.0,58.9,54.7,59.0,55.0,48.2,92,87,44,30.36,30.24,4,0,4,0.00
2013-8-21,81.5,57.9,54.3,60.8,52.9,48.2,90,84,36,30.30,30.12,6,0,7,0.00
2013-8-22,71.1,59.6,55.9,60.8,55.6,53.6,93,86,62,30.15,30.07,2,0,6,0.00
2013-8-23,86.0,63.1,60.4,64.4,59.1,51.8,95,89,36,30.07,29.89,4,0,8,0.00
2013-8-24,72.1,66.1,60.8,60.8,56.8,53.6,92,72,59,29.92,29.77,6,1,6,0.04
2013-8-25,74.3,59.1,56.1,66.2,57.6,55.4,97,94,63,29.95,29.77,4,0,4,0.00
2013-8-26,83.5,60.2,56.5,59.0,52.8,44.6,87,77,30,30.03,29.95,5,0,6,0.00
2013-8-27,85.1,60.7,54.9,53.6,47.8,42.8,73,62,30,30.03,29.95,3,0,6,0.00
2013-8-28,81.3,60.2,57.7,62.6,55.0,50.0,93,83,39,30.18,30.03,3,0,6,0.00
2013-8-29,83.5,58.9,54.1,62.6,54.4,44.6,94,85,31,30.18,30.09,3,0,10,0.00
2013-8-30,75.9,60.9,57.7,62.6,57.3,51.8,94,88,51,30.12,30.03,0,0,1,0.00
2013-8-31,75.0,65.3,54.5,62.6,53.9,42.8,92,68,42,30.27,30.01,8,0,8,0.00
2013-9-1,66.6,55.2,51.3,51.8,45.1,41.0,75,68,46,30.30,30.21,6,0,11,0.00
2013-9-2,69.3,60.6,57.6,59.0,52.2,50.0,88,73,61,30.27,30.15,9,1,11,0.00
2013-9-3,84.7,61.0,57.6,64.4,58.3,55.4,96,91,42,30.30,30.24,4,0,6,0.00
2013-9-4,86.4,65.3,58.1,66.2,59.1,57.2,95,82,41,30.27,30.03,4,0,8,0.00
2013-9-5,97.2,63.8,59.4,66.2,58.6,51.8,95,85,28,30.03,29.77,5,0,8,0.00
2013-9-6,82.2,66.9,62.6,64.4,57.8,53.6,86,73,41,29.83,29.71,6,0,8,0.08
2013-9-7,74.3,62.4,60.1,59.0,55.0,41.0,87,77,44,30.07,29.89,3,0,6,0.00
2013-9-8,72.9,58.5,53.4,59.0,50.6,46.4,92,75,45,30.09,30.01,4,0,6,0.71
2013-9-9,64.0,52.3,50.7,57.2,51.1,46.4,97,94,65,30.07,29.86,6,0,6,0.96
2013-9-10,64.4,51.3,49.6,57.2,50.4,48.2,98,96,57,29.92,29.74,8,0,14,1.28
2013-9-11,70.2,56.1,53.1,60.8,54.7,50.0,98,93,50,29.98,29.71,9,1,9,0.08
2013-9-12,69.3,56.3,53.6,59.0,55.0,50.0,96,93,54,30.07,29.95,5,0,7,0.08
2013-9-13,64.2,53.9,52.3,59.0,52.7,50.0,97,95,68,30.07,29.95,4,0,8,0.05
2013-9-14,63.9,60.3,54.5,60.8,59.7,48.2,98,96,64,30.07,29.71,10,1,10,0.25
2013-9-15,66.6,52.1,47.7,53.6,48.0,41.0,96,86,43,29.95,29.50,13,0,13,0.00
2013-9-16,63.1,52.5,46.4,55.4,48.5,37.4,97,86,43,29.56,29.47,11,2,14,0.00
2013-9-17,57.7,48.6,46.4,50.0,46.2,42.8,96,90,68,29.59,29.33,6,1,9,1.55
2013-9-18,64.9,54.8,48.7,57.2,49.3,42.8,98,81,57,29.71,29.30,4,1,8,0.00
2013-9-19,59.7,56.5,53.4,55.4,49.7,44.6,97,77,59,29.83,29.71,6,2,15,0.00
2013-9-20,62.1,58.2,49.5,55.4,50.6,48.2,97,75,61,30.15,29.71,6,1,8,0.00
2013-9-21,49.3,49.3,49.3,48.2,48.2,48.2,92,92,92,30.15,30.15,0,0,0,0.00
2013-9-22,67.3,62.1,59.2,60.8,59.3,59.0,96,90,79,30.30,30.27,4,1,6,0.00
2013-9-23,74.8,64.3,55.8,62.6,58.1,55.4,97,80,55,30.30,30.12,7,1,8,0.21
2013-9-24,69.8,62.7,56.7,62.6,56.7,53.6,98,81,66,30.07,29.92,3,0,3,0.04
2013-9-25,70.2,63.2,57.2,59.0,55.3,53.6,92,75,59,29.92,29.77,0,0,2,0.00
2013-9-26,66.2,56.9,52.0,50.0,44.5,42.8,71,63,46,30.07,29.83,4,1,9,0.00
2013-9-27,67.1,47.9,43.5,50.0,42.1,39.2,89,79,49,30.07,29.95,6,0,6,0.00
2013-9-28,69.1,53.6,43.2,48.2,41.9,37.4,87,66,43,29.98,29.83,10,1,10,0.00
2013-9-29,67.1,49.2,46.4,44.6,42.6,37.4,82,77,43,29.86,29.71,8,2,12,0.00
2013-9-30,65.5,47.6,43.3,44.6,39.6,37.4,86,74,45,29.83,29.77,8,1,10,0.00
2013-10-1,66.2,45.5,40.5,44.6,38.8,35.6,86,77,44,29.95,29.83,7,1,8,0.00
2013-10-2,63.7,46.2,41.2,42.8,37.5,35.6,82,71,44,30.03,29.95,7,2,12,0.00
2013-10-3,66.4,49.6,46.2,48.2,38.3,35.6,68,64,43,30.01,29.83,10,2,11,0.00
2013-10-4,72.5,56.7,54.0,64.4,54.1,50.0,98,89,64,29.92,29.83,8,2,11,0.67
2013-10-5,70.2,57.5,55.2,62.6,55.3,50.0,98,92,53,30.18,29.89,3,0,7,0.00
2013-10-6,66.9,53.6,49.6,60.8,52.6,48.2,98,95,56,30.27,30.18,2,0,4,0.00
2013-10-7,72.1,48.0,44.8,57.2,46.8,44.6,98,94,49,30.27,30.18,3,0,5,0.00
2013-10-8,66.2,54.4,49.5,59.0,53.3,48.2,97,95,69,30.24,30.18,3,0,6,0.00
2013-10-9,61.3,58.0,48.2,57.2,55.6,44.6,97,92,56,30.18,29.80,7,1,10,0.04
2013-10-10,58.1,46.4,44.1,48.2,43.2,39.2,95,88,56,29.80,29.68,9,1,9,0.21
2013-10-11,47.1,44.2,43.2,48.2,43.5,42.8,98,96,94,29.98,29.77,4,0,4,0.66
2013-10-12,46.9,43.3,39.7,48.2,43.4,39.2,98,98,97,30.09,29.95,3,0,3,0.08
2013-10-13,48.2,46.9,44.8,48.2,47.3,44.6,98,98,96,29.89,29.68,14,3,14,2.49
2013-10-14,52.2,48.8,47.5,50.0,48.6,48.2,98,97,89,29.86,29.71,6,1,7,0.09
2013-10-15,53.4,49.3,48.0,51.8,48.8,48.2,98,97,86,29.74,29.65,5,1,7,0.16
2013-10-16,56.1,53.0,50.4,55.4,52.8,48.2,98,96,82,29.92,29.71,6,1,6,0.16
2013-10-17,64.0,55.6,47.3,55.4,52.2,46.4,98,87,55,29.98,29.71,13,3,13,0.00
2013-10-18,55.0,50.2,46.4,55.4,50.3,46.4,98,98,96,30.07,29.92,4,0,6,0.00
2013-10-19,63.3,50.4,48.0,57.2,49.4,48.2,98,95,69,29.95,29.68,7,2,7,0.33
2013-10-20,68.0,58.2,53.4,60.8,55.2,51.8,98,89,62,29.80,29.71,10,1,10,0.00
2013-10-21,64.0,58.0,53.2,57.2,54.9,51.8,97,88,77,29.83,29.74,10,1,10,0.00
2013-10-22,73.9,62.2,55.8,60.8,56.8,53.6,96,83,59,29.74,29.47,9,1,9,0.00
2013-10-23,68.2,60.5,56.5,59.0,55.2,50.0,95,82,59,29.77,29.44,12,2,12,0.04
2013-10-24,67.3,54.0,46.6,53.6,49.3,44.6,97,84,48,30.01,29.77,5,0,5,0.00
2013-10-25,64.6,51.9,49.8,59.0,50.2,48.2,96,93,82,29.98,29.71,8,2,8,0.05
2013-10-26,66.7,58.1,57.0,59.0,55.9,50.0,97,92,60,29.80,29.65,7,1,11,0.00
2013-10-27,60.3,58.0,54.9,55.4,53.1,48.2,96,82,70,29.74,29.42,13,3,20,0.37
2013-10-28,60.8,56.1,51.3,55.4,53.3,42.8,98,89,54,29.59,29.09,17,4,23,0.50
2013-10-29,56.3,49.5,45.5,48.2,46.1,42.8,93,86,67,29.95,29.59,16,3,16,0.08
2013-10-30,57.2,46.8,44.6,48.2,42.7,39.2,92,85,53,30.18,29.92,8,1,11,0.04
2013-10-31,56.1,46.9,45.1,50.0,43.6,42.8,90,87,64,30.18,29.95,7,2,13,0.00
2013-11-1,53.4,51.3,49.1,51.8,49.0,48.2,95,92,86,29.98,29.65,6,2,9,0.00
2013-11-2,54.5,48.4,47.3,53.6,48.2,46.4,98,96,80,29.62,29.44,6,1,9,0.33
2013-11-3,54.0,49.8,44.6,48.2,43.4,37.4,90,78,62,29.53,29.36,11,3,11,0.34
2013-11-4,52.7,47.5,45.0,51.8,46.4,37.4,98,94,66,29.42,28.91,13,3,13,1.07
2013-11-5,49.1,44.0,40.6,48.2,41.6,37.4,98,90,74,29.44,29.18,9,1,13,0.33
2013-11-6,57.4,49.9,47.5,55.4,43.4,39.2,98,76,69,29.56,29.30,12,2,12,0.13
2013-11-7,57.6,54.5,49.1,57.2,52.5,44.6,97,92,72,29.77,29.47,18,2,18,0.12
2013-11-8,54.3,45.8,42.1,50.0,45.4,42.8,98,96,79,29.77,29.50,3,0,7,0.09
2013-11-9,53.8,47.0,43.0,48.2,42.1,39.2,98,82,60,29.74,29.50,10,3,14,0.62
2013-11-10,49.1,42.3,37.9,42.8,41.6,35.6,98,94,65,30.18,29.56,6,0,8,0.17
2013-11-11,49.5,40.8,36.1,44.6,37.1,33.8,98,86,60,30.30,30.18,6,1,8,0.00
2013-11-12,49.1,46.0,43.5,50.0,43.4,33.8,98,90,61,30.33,30.12,10,1,10,0.08
2013-11-13,54.1,40.3,36.9,48.2,39.3,37.4,98,94,57,30.45,30.24,4,0,6,0.00
2013-11-14,49.1,43.9,43.0,48.2,40.9,39.2,97,88,80,30.45,29.95,6,2,9,0.29
2013-11-15,54.3,41.8,37.8,46.4,40.1,37.4,96,92,67,30.45,29.98,4,0,5,0.00
2013-11-16,44.1,41.1,37.9,44.6,41.0,37.4,98,97,94,30.42,30.30,4,0,4,0.00
2013-11-17,45.9,43.2,42.3,44.6,42.9,42.8,98,98,96,30.30,30.03,3,0,4,0.00
2013-11-18,45.0,41.8,40.5,42.8,40.8,37.4,97,95,75,30.03,29.68,7,0,10,0.00
2013-11-19,47.5,41.3,36.7,44.6,39.3,33.8,98,92,77,29.86,29.59,6,1,7,0.17
2013-11-20,42.1,36.7,33.6,37.4,34.5,26.6,97,90,59,29.86,29.33,8,0,10,0.20
2013-11-21,41.9,37.1,34.2,37.4,34.1,32.0,97,87,73,29.80,29.33,7,2,7,0.00
2013-11-22,43.7,36.2,33.6,39.2,33.3,32.0,93,87,78,30.01,29.77,6,1,7,0.00
2013-11-23,47.5,40.4,37.8,39.2,37.4,33.8,93,89,63,30.18,29.86,5,1,7,0.00
2013-11-24,47.5,44.2,40.3,44.6,39.5,33.8,93,83,60,30.39,30.09,8,1,8,0.00
2013-11-25,48.2,41.5,40.5,39.2,33.5,32.0,85,71,66,30.54,30.27,8,1,8,0.00
2013-11-26,46.4,40.3,38.8,41.0,37.4,35.6,92,88,72,30.54,30.45,3,0,5,0.00
2013-11-27,48.7,42.0,38.5,46.4,40.6,37.4,98,94,73,30.48,30.42,6,0,6,0.04
2013-11-28,51.1,48.0,45.5,50.0,47.8,41.0,98,97,78,30.45,30.39,4,0,5,0.00
2013-11-29,48.4,46.0,41.0,46.4,39.1,33.8,95,77,65,30.42,29.89,12,2,14,0.13
2013-11-30,52.7,43.1,40.6,42.8,40.3,37.4,96,88,58,30.30,29.89,5,1,10,0.12
2013-12-1,48.2,42.9,40.1,46.4,41.4,39.2,97,92,74,30.48,30.18,8,0,8,0.00
2013-12-2,48.7,42.4,35.2,41.0,38.4,33.8,92,84,64,30.51,30.39,5,0,6,0.00
2013-12-3,44.4,33.1,30.7,42.8,31.6,28.4,98,95,84,30.39,30.24,2,0,4,0.00
2013-12-4,46.8,40.3,38.1,46.4,38.2,33.8,98,91,76,30.33,30.15,6,0,10,0.04
2013-12-5,48.7,40.6,36.9,42.8,35.4,24.8,87,81,51,30.33,29.71,15,2,33,0.25
2013-12-6,41.5,40.3,35.4,33.8,24.9,21.2,90,54,47,30.24,29.86,20,6,20,0.21
2013-12-7,47.5,45.3,39.2,46.4,42.2,30.2,97,88,67,30.24,30.12,6,1,9,0.04
2013-12-8,49.5,45.3,44.1,46.4,43.3,41.0,97,91,81,30.18,30.12,11,1,14,0.04
2013-12-9,51.6,48.3,44.2,48.2,46.2,42.8,97,90,80,30.42,30.18,14,4,14,0.00
2013-12-10,50.9,38.4,34.2,42.8,37.3,32.0,97,94,61,30.48,30.42,2,0,6,0.00
2013-12-11,47.3,33.5,31.5,41.0,32.6,30.2,98,95,73,30.48,30.36,4,0,5,0.00
2013-12-12,42.4,34.1,32.5,37.4,34.2,32.0,98,97,75,30.39,30.18,4,1,8,0.00
2013-12-13,40.6,33.8,32.9,41.0,34.2,33.8,98,98,89,30.24,30.07,5,1,8,0.00
2013-12-14,48.2,40.8,38.5,44.6,40.3,35.6,98,96,73,30.27,30.07,8,1,12,0.08
2013-12-15,48.6,45.0,42.4,44.6,40.2,35.6,93,82,69,30.21,30.09,14,3,14,0.09
2013-12-16,54.5,47.8,46.6,42.8,41.9,35.6,86,79,53,30.15,30.03,12,3,14,0.00
2013-12-17,50.0,46.4,41.2,42.8,39.6,37.4,95,76,69,30.21,30.07,10,1,10,0.00
2013-12-18,48.7,44.9,41.5,42.8,41.1,39.2,95,85,73,30.18,29.56,10,1,10,0.04
2013-12-19,51.3,46.6,38.3,48.2,45.5,35.6,97,93,61,29.98,29.42,10,3,10,0.37
2013-12-20,49.6,40.6,37.9,41.0,39.0,35.6,97,93,59,30.21,29.50,10,1,11,0.37
2013-12-21,45.7,44.2,42.8,42.8,38.4,35.6,97,80,76,30.18,29.83,15,4,15,0.17
2013-12-22,49.8,45.3,44.1,46.4,42.3,39.2,93,88,76,29.89,29.74,13,4,17,0.04
2013-12-23,52.2,42.6,40.6,46.4,39.5,37.4,92,88,71,29.92,29.30,14,3,17,0.08
2013-12-24,52.5,51.7,50.5,44.6,41.8,41.0,76,68,64,29.27,29.06,22,7,22,0.04
2013-12-25,47.7,44.3,36.3,46.4,41.4,35.6,98,88,71,29.27,28.97,11,2,11,0.13
2013-12-26,45.3,41.4,36.0,42.8,39.2,35.6,98,90,77,29.56,29.27,4,1,8,0.04
2013-12-27,47.8,41.9,37.9,48.2,38.4,35.6,98,87,75,29.50,29.21,15,3,15,0.16
2013-12-28,50.0,44.2,39.9,44.6,42.3,37.4,98,92,74,29.62,29.33,6,2,9,0.16
2013-12-29,44.8,41.7,37.8,42.8,38.1,35.6,98,86,74,30.12,29.86,6,2,13,0.00
2013-12-30,44.8,37.9,36.5,41.0,37.0,35.6,97,93,76,30.15,29.65,8,2,13,0.04
2013-12-31,47.5,42.9,41.5,41.0,39.9,32.0,95,87,56,30.01,29.65,11,2,11,0.13
2014-1-1,47.3,41.3,39.9,46.4,40.3,39.2,97,94,75,29.86,29.30,12,2,15,0.16
2014-1-2,50.2,48.9,43.7,48.2,45.7,41.0,97,87,75,29.59,29.24,9,3,15,0.04